sensor_id;sensor_type;location;lat;lon;timestamp;temperature;humidity
10660;DHT22;5378;53.206;13.316;2022-11-23T00:00:58;2.80;99.90
10660;DHT22;5378;53.206;13.316;2022-11-23T00:03:47;2.90;99.90
10660;DHT22;5378;53.206;13.316;2022-11-23T00:06:35;3.10;99.90
10660;DHT22;5378;53.206;13.316;2022-11-23T00:09:22;3.10;99.90
10660;DHT22;5378;53.206;13.316;2022-11-23T00:12:09;3.20;99.90
10660;DHT22;5378;53.206;13.316;2022-11-23T00:14:56;3.00;99.90
10660;DHT22;5378;53.206;13.316;2022-11-23T00:17:46;3.00;99.90
10660;DHT22;5378;53.206;13.316;2022-11-23T00:20:33;3.20;99.90
10660;DHT22;5378;53.206;13.316;2022-11-23T00:23:21;3.30;99.90
10660;DHT22;5378;53.206;13.316;2022-11-23T00:26:09;3.50;99.90
10660;DHT22;5378;53.206;13.316;2022-11-23T00:28:56;3.50;99.90
10660;DHT22;5378;53.206;13.316;2022-11-23T00:31:44;3.60;99.90
10660;DHT22;5378;53.206;13.316;2022-11-23T00:34:31;3.60;99.90
10660;DHT22;5378;53.206;13.316;2022-11-23T00:37:18;3.60;99.90
10660;DHT22;5378;53.206;13.316;2022-11-23T00:40:08;3.60;99.90
10660;DHT22;5378;53.206;13.316;2022-11-23T00:42:56;3.60;99.90
10660;DHT22;5378;53.206;13.316;2022-11-23T00:45:43;3.40;99.90
10660;DHT22;5378;53.206;13.316;2022-11-23T00:48:30;3.40;99.90
10660;DHT22;5378;53.206;13.316;2022-11-23T00:51:20;3.50;99.90
10660;DHT22;5378;53.206;13.316;2022-11-23T00:54:08;3.40;99.90
10660;DHT22;5378;53.206;13.316;2022-11-23T00:56:56;3.30;99.90
10660;DHT22;5378;53.206;13.316;2022-11-23T00:59:44;3.30;99.90
10660;DHT22;5378;53.206;13.316;2022-11-23T01:02:33;3.20;99.90
10660;DHT22;5378;53.206;13.316;2022-11-23T01:05:20;3.30;99.90
10660;DHT22;5378;53.206;13.316;2022-11-23T01:08:07;3.40;99.90
10660;DHT22;5378;53.206;13.316;2022-11-23T01:10:58;3.50;99.90
10660;DHT22;5378;53.206;13.316;2022-11-23T01:13:47;3.50;99.90
10660;DHT22;5378;53.206;13.316;2022-11-23T01:16:35;3.60;99.90
10660;DHT22;5378;53.206;13.316;2022-11-23T01:19:22;3.60;99.90
10660;DHT22;5378;53.206;13.316;2022-11-23T01:22:10;3.70;99.90
10660;DHT22;5378;53.206;13.316;2022-11-23T01:24:57;3.50;99.90
10660;DHT22;5378;53.206;13.316;2022-11-23T01:27:44;3.60;99.90
10660;DHT22;5378;53.206;13.316;2022-11-23T01:30:32;3.50;99.90
10660;DHT22;5378;53.206;13.316;2022-11-23T01:33:21;3.50;99.90
10660;DHT22;5378;53.206;13.316;2022-11-23T01:36:09;3.30;99.90
10660;DHT22;5378;53.206;13.316;2022-11-23T01:38:57;3.30;99.90
10660;DHT22;5378;53.206;13.316;2022-11-23T01:41:44;3.40;99.90
10660;DHT22;5378;53.206;13.316;2022-11-23T01:44:33;3.50;99.90
10660;DHT22;5378;53.206;13.316;2022-11-23T01:47:21;3.50;99.90
10660;DHT22;5378;53.206;13.316;2022-11-23T01:50:08;3.40;99.90
10660;DHT22;5378;53.206;13.316;2022-11-23T01:52:55;3.40;99.90
10660;DHT22;5378;53.206;13.316;2022-11-23T01:55:44;3.40;99.90
10660;DHT22;5378;53.206;13.316;2022-11-23T01:58:35;3.40;99.90
10660;DHT22;5378;53.206;13.316;2022-11-23T02:01:23;3.20;99.90
10660;DHT22;5378;53.206;13.316;2022-11-23T02:04:15;3.30;99.90
10660;DHT22;5378;53.206;13.316;2022-11-23T02:07:03;3.30;99.90
10660;DHT22;5378;53.206;13.316;2022-11-23T02:09:52;3.40;99.90
10660;DHT22;5378;53.206;13.316;2022-11-23T02:12:39;3.60;99.90
10660;DHT22;5378;53.206;13.316;2022-11-23T02:15:26;3.60;99.90
10660;DHT22;5378;53.206;13.316;2022-11-23T02:18:16;3.70;99.90
10660;DHT22;5378;53.206;13.316;2022-11-23T02:21:08;3.50;99.90
10660;DHT22;5378;53.206;13.316;2022-11-23T02:24:00;3.60;99.90
10660;DHT22;5378;53.206;13.316;2022-11-23T02:26:50;3.60;99.90
10660;DHT22;5378;53.206;13.316;2022-11-23T02:29:38;3.60;99.90
10660;DHT22;5378;53.206;13.316;2022-11-23T02:32:25;3.60;99.90
10660;DHT22;5378;53.206;13.316;2022-11-23T02:35:14;3.40;99.90
10660;DHT22;5378;53.206;13.316;2022-11-23T02:38:03;3.40;99.90
10660;DHT22;5378;53.206;13.316;2022-11-23T02:40:52;3.40;99.90
10660;DHT22;5378;53.206;13.316;2022-11-23T02:43:42;3.40;99.90
10660;DHT22;5378;53.206;13.316;2022-11-23T02:46:29;3.40;99.90
10660;DHT22;5378;53.206;13.316;2022-11-23T02:49:16;3.40;99.90
10660;DHT22;5378;53.206;13.316;2022-11-23T02:52:03;3.40;99.90
10660;DHT22;5378;53.206;13.316;2022-11-23T02:54:51;3.30;99.90
10660;DHT22;5378;53.206;13.316;2022-11-23T02:57:38;3.20;99.90
10660;DHT22;5378;53.206;13.316;2022-11-23T03:00:29;3.10;99.90
10660;DHT22;5378;53.206;13.316;2022-11-23T03:03:17;3.00;99.90
10660;DHT22;5378;53.206;13.316;2022-11-23T03:06:05;3.20;99.90
10660;DHT22;5378;53.206;13.316;2022-11-23T03:08:52;3.30;99.90
10660;DHT22;5378;53.206;13.316;2022-11-23T03:11:39;3.30;99.90
10660;DHT22;5378;53.206;13.316;2022-11-23T03:14:26;3.30;99.90
10660;DHT22;5378;53.206;13.316;2022-11-23T03:17:17;3.40;99.90
10660;DHT22;5378;53.206;13.316;2022-11-23T03:20:05;3.40;99.90
10660;DHT22;5378;53.206;13.316;2022-11-23T03:22:55;3.30;99.90
10660;DHT22;5378;53.206;13.316;2022-11-23T03:25:43;3.20;99.90
10660;DHT22;5378;53.206;13.316;2022-11-23T03:28:33;3.20;99.90
10660;DHT22;5378;53.206;13.316;2022-11-23T03:31:20;3.20;99.90
10660;DHT22;5378;53.206;13.316;2022-11-23T03:34:09;3.10;99.90
10660;DHT22;5378;53.206;13.316;2022-11-23T03:36:57;3.10;99.90
10660;DHT22;5378;53.206;13.316;2022-11-23T03:39:45;3.30;99.90
10660;DHT22;5378;53.206;13.316;2022-11-23T03:43:04;3.40;99.90
10660;DHT22;5378;53.206;13.316;2022-11-23T03:45:51;3.50;99.90
10660;DHT22;5378;53.206;13.316;2022-11-23T03:48:39;3.50;99.90
10660;DHT22;5378;53.206;13.316;2022-11-23T03:51:27;3.40;99.90
10660;DHT22;5378;53.206;13.316;2022-11-23T03:54:14;3.40;99.90
10660;DHT22;5378;53.206;13.316;2022-11-23T03:57:02;3.50;99.90
10660;DHT22;5378;53.206;13.316;2022-11-23T03:59:50;3.60;99.90
10660;DHT22;5378;53.206;13.316;2022-11-23T04:02:38;3.50;99.90
10660;DHT22;5378;53.206;13.316;2022-11-23T04:05:29;3.50;99.90
10660;DHT22;5378;53.206;13.316;2022-11-23T04:08:36;3.70;99.90
10660;DHT22;5378;53.206;13.316;2022-11-23T04:11:28;3.70;99.90
10660;DHT22;5378;53.206;13.316;2022-11-23T04:14:16;3.70;99.90
10660;DHT22;5378;53.206;13.316;2022-11-23T04:17:03;3.70;99.90
10660;DHT22;5378;53.206;13.316;2022-11-23T04:19:51;3.70;99.90
10660;DHT22;5378;53.206;13.316;2022-11-23T04:22:38;3.70;99.90
10660;DHT22;5378;53.206;13.316;2022-11-23T04:25:27;3.70;99.90
10660;DHT22;5378;53.206;13.316;2022-11-23T04:28:15;3.70;99.90
10660;DHT22;5378;53.206;13.316;2022-11-23T04:31:04;3.70;99.90
10660;DHT22;5378;53.206;13.316;2022-11-23T04:34:01;3.60;99.90
10660;DHT22;5378;53.206;13.316;2022-11-23T04:36:49;3.60;99.90
10660;DHT22;5378;53.206;13.316;2022-11-23T04:39:40;3.60;99.90
10660;DHT22;5378;53.206;13.316;2022-11-23T04:42:37;3.70;99.90
10660;DHT22;5378;53.206;13.316;2022-11-23T04:45:25;3.60;99.90
10660;DHT22;5378;53.206;13.316;2022-11-23T04:48:14;3.60;99.90
10660;DHT22;5378;53.206;13.316;2022-11-23T04:51:01;3.60;99.90
10660;DHT22;5378;53.206;13.316;2022-11-23T04:53:54;3.60;99.90
10660;DHT22;5378;53.206;13.316;2022-11-23T04:56:43;3.70;99.90
10660;DHT22;5378;53.206;13.316;2022-11-23T04:59:32;3.60;99.90
10660;DHT22;5378;53.206;13.316;2022-11-23T05:02:20;3.60;99.90
10660;DHT22;5378;53.206;13.316;2022-11-23T05:05:21;3.60;99.90
10660;DHT22;5378;53.206;13.316;2022-11-23T05:08:08;3.60;99.90
10660;DHT22;5378;53.206;13.316;2022-11-23T05:11:19;3.50;99.90
10660;DHT22;5378;53.206;13.316;2022-11-23T05:14:08;3.40;99.90
10660;DHT22;5378;53.206;13.316;2022-11-23T05:16:57;3.10;99.90
10660;DHT22;5378;53.206;13.316;2022-11-23T05:19:45;3.20;99.90
10660;DHT22;5378;53.206;13.316;2022-11-23T05:22:32;3.20;99.90
10660;DHT22;5378;53.206;13.316;2022-11-23T05:25:20;3.20;99.90
10660;DHT22;5378;53.206;13.316;2022-11-23T05:28:15;3.10;99.90
10660;DHT22;5378;53.206;13.316;2022-11-23T05:31:22;3.20;99.90
10660;DHT22;5378;53.206;13.316;2022-11-23T05:34:11;3.30;99.90
10660;DHT22;5378;53.206;13.316;2022-11-23T05:37:03;3.40;99.90
10660;DHT22;5378;53.206;13.316;2022-11-23T05:39:51;3.40;99.90
10660;DHT22;5378;53.206;13.316;2022-11-23T05:42:39;3.30;99.90
10660;DHT22;5378;53.206;13.316;2022-11-23T05:45:32;3.30;99.90
10660;DHT22;5378;53.206;13.316;2022-11-23T05:48:20;3.30;99.90
10660;DHT22;5378;53.206;13.316;2022-11-23T05:51:16;3.30;99.90
10660;DHT22;5378;53.206;13.316;2022-11-23T05:54:05;3.50;99.90
10660;DHT22;5378;53.206;13.316;2022-11-23T05:56:57;3.50;99.90
10660;DHT22;5378;53.206;13.316;2022-11-23T05:59:54;3.40;99.90
10660;DHT22;5378;53.206;13.316;2022-11-23T06:02:46;3.40;99.90
10660;DHT22;5378;53.206;13.316;2022-11-23T06:05:33;3.50;99.90
10660;DHT22;5378;53.206;13.316;2022-11-23T06:08:22;3.40;99.90
10660;DHT22;5378;53.206;13.316;2022-11-23T06:11:09;3.40;99.90
10660;DHT22;5378;53.206;13.316;2022-11-23T06:13:57;3.40;99.90
10660;DHT22;5378;53.206;13.316;2022-11-23T06:16:44;3.50;99.90
10660;DHT22;5378;53.206;13.316;2022-11-23T06:19:48;3.30;99.90
10660;DHT22;5378;53.206;13.316;2022-11-23T06:22:35;3.30;99.90
10660;DHT22;5378;53.206;13.316;2022-11-23T06:25:25;3.30;99.90
10660;DHT22;5378;53.206;13.316;2022-11-23T06:28:22;3.30;99.90
10660;DHT22;5378;53.206;13.316;2022-11-23T06:31:11;3.20;99.90
10660;DHT22;5378;53.206;13.316;2022-11-23T06:33:59;3.20;99.90
10660;DHT22;5378;53.206;13.316;2022-11-23T06:36:49;3.30;99.90
10660;DHT22;5378;53.206;13.316;2022-11-23T06:39:36;3.30;99.90
10660;DHT22;5378;53.206;13.316;2022-11-23T06:42:27;3.40;99.90
10660;DHT22;5378;53.206;13.316;2022-11-23T06:45:23;3.50;99.90
10660;DHT22;5378;53.206;13.316;2022-11-23T06:48:13;3.50;99.90
10660;DHT22;5378;53.206;13.316;2022-11-23T06:51:04;3.60;99.90
10660;DHT22;5378;53.206;13.316;2022-11-23T06:53:54;3.60;99.90
10660;DHT22;5378;53.206;13.316;2022-11-23T06:56:42;3.50;99.90
10660;DHT22;5378;53.206;13.316;2022-11-23T06:59:31;3.40;99.90
10660;DHT22;5378;53.206;13.316;2022-11-23T07:02:18;3.40;99.90
10660;DHT22;5378;53.206;13.316;2022-11-23T07:05:06;3.40;99.90
10660;DHT22;5378;53.206;13.316;2022-11-23T07:07:56;3.40;99.90
10660;DHT22;5378;53.206;13.316;2022-11-23T07:10:45;3.60;99.90
10660;DHT22;5378;53.206;13.316;2022-11-23T07:13:34;3.60;99.90
10660;DHT22;5378;53.206;13.316;2022-11-23T07:16:23;3.70;99.90
10660;DHT22;5378;53.206;13.316;2022-11-23T07:19:10;3.90;99.90
10660;DHT22;5378;53.206;13.316;2022-11-23T07:21:57;3.90;99.90
10660;DHT22;5378;53.206;13.316;2022-11-23T07:24:44;3.80;99.90
10660;DHT22;5378;53.206;13.316;2022-11-23T07:27:32;3.80;99.90
10660;DHT22;5378;53.206;13.316;2022-11-23T07:30:20;3.80;99.90
10660;DHT22;5378;53.206;13.316;2022-11-23T07:33:11;3.80;99.90
10660;DHT22;5378;53.206;13.316;2022-11-23T07:36:00;3.60;99.90
10660;DHT22;5378;53.206;13.316;2022-11-23T07:38:49;3.50;99.90
10660;DHT22;5378;53.206;13.316;2022-11-23T07:41:38;3.60;99.90
10660;DHT22;5378;53.206;13.316;2022-11-23T07:44:37;3.80;99.90
10660;DHT22;5378;53.206;13.316;2022-11-23T07:47:27;3.90;99.90
10660;DHT22;5378;53.206;13.316;2022-11-23T07:50:15;3.70;99.90
10660;DHT22;5378;53.206;13.316;2022-11-23T07:53:04;3.60;99.90
10660;DHT22;5378;53.206;13.316;2022-11-23T07:55:54;3.60;99.90
10660;DHT22;5378;53.206;13.316;2022-11-23T07:58:42;3.70;99.90
10660;DHT22;5378;53.206;13.316;2022-11-23T08:01:29;3.70;99.90
10660;DHT22;5378;53.206;13.316;2022-11-23T08:04:17;3.70;99.90
10660;DHT22;5378;53.206;13.316;2022-11-23T08:07:06;3.80;99.90
10660;DHT22;5378;53.206;13.316;2022-11-23T08:09:53;3.80;99.90
10660;DHT22;5378;53.206;13.316;2022-11-23T08:12:40;3.90;99.90
10660;DHT22;5378;53.206;13.316;2022-11-23T08:15:27;3.80;99.90
10660;DHT22;5378;53.206;13.316;2022-11-23T08:18:14;3.70;99.90
10660;DHT22;5378;53.206;13.316;2022-11-23T08:21:02;3.90;99.90
10660;DHT22;5378;53.206;13.316;2022-11-23T08:23:50;4.10;99.90
10660;DHT22;5378;53.206;13.316;2022-11-23T08:26:37;4.10;99.90
10660;DHT22;5378;53.206;13.316;2022-11-23T08:29:25;4.20;99.90
10660;DHT22;5378;53.206;13.316;2022-11-23T08:32:12;4.30;99.90
10660;DHT22;5378;53.206;13.316;2022-11-23T08:34:59;4.30;99.90
10660;DHT22;5378;53.206;13.316;2022-11-23T08:37:46;4.30;99.90
10660;DHT22;5378;53.206;13.316;2022-11-23T08:40:35;4.40;99.90
10660;DHT22;5378;53.206;13.316;2022-11-23T08:43:22;4.40;99.90
10660;DHT22;5378;53.206;13.316;2022-11-23T08:46:09;4.40;99.90
10660;DHT22;5378;53.206;13.316;2022-11-23T08:48:56;4.30;99.90
10660;DHT22;5378;53.206;13.316;2022-11-23T08:51:43;4.40;99.90
10660;DHT22;5378;53.206;13.316;2022-11-23T08:54:35;4.40;99.90
10660;DHT22;5378;53.206;13.316;2022-11-23T08:57:23;4.40;99.90
10660;DHT22;5378;53.206;13.316;2022-11-23T09:00:11;4.40;99.90
10660;DHT22;5378;53.206;13.316;2022-11-23T09:02:58;4.60;99.90
10660;DHT22;5378;53.206;13.316;2022-11-23T09:05:46;4.60;99.90
10660;DHT22;5378;53.206;13.316;2022-11-23T09:08:44;4.50;99.90
10660;DHT22;5378;53.206;13.316;2022-11-23T09:11:31;4.50;99.90
10660;DHT22;5378;53.206;13.316;2022-11-23T09:14:19;4.60;99.90
10660;DHT22;5378;53.206;13.316;2022-11-23T09:17:08;4.70;99.90
10660;DHT22;5378;53.206;13.316;2022-11-23T09:19:55;4.80;99.90
10660;DHT22;5378;53.206;13.316;2022-11-23T09:22:42;4.60;99.90
10660;DHT22;5378;53.206;13.316;2022-11-23T09:25:29;4.60;99.90
10660;DHT22;5378;53.206;13.316;2022-11-23T09:28:16;4.70;99.90
10660;DHT22;5378;53.206;13.316;2022-11-23T09:31:06;4.70;99.90
10660;DHT22;5378;53.206;13.316;2022-11-23T09:33:53;4.70;99.90
10660;DHT22;5378;53.206;13.316;2022-11-23T09:36:40;4.70;99.90
10660;DHT22;5378;53.206;13.316;2022-11-23T09:39:27;4.60;99.90
10660;DHT22;5378;53.206;13.316;2022-11-23T09:45:42;4.60;99.90
10660;DHT22;5378;53.206;13.316;2022-11-23T09:48:51;4.70;99.90
10660;DHT22;5378;53.206;13.316;2022-11-23T09:51:42;4.60;99.90
10660;DHT22;5378;53.206;13.316;2022-11-23T09:54:32;4.60;99.90
10660;DHT22;5378;53.206;13.316;2022-11-23T09:57:24;4.80;99.90
10660;DHT22;5378;53.206;13.316;2022-11-23T10:00:17;4.90;99.90
10660;DHT22;5378;53.206;13.316;2022-11-23T10:03:12;4.90;99.90
10660;DHT22;5378;53.206;13.316;2022-11-23T10:06:06;4.90;99.90
10660;DHT22;5378;53.206;13.316;2022-11-23T10:09:04;5.00;99.90
10660;DHT22;5378;53.206;13.316;2022-11-23T10:12:12;5.10;99.90
10660;DHT22;5378;53.206;13.316;2022-11-23T10:15:10;5.20;99.90
10660;DHT22;5378;53.206;13.316;2022-11-23T10:18:09;5.30;99.90
10660;DHT22;5378;53.206;13.316;2022-11-23T10:21:07;5.40;99.90
10660;DHT22;5378;53.206;13.316;2022-11-23T10:24:09;5.50;99.90
10660;DHT22;5378;53.206;13.316;2022-11-23T10:26:58;5.60;99.90
10660;DHT22;5378;53.206;13.316;2022-11-23T10:29:45;5.50;99.90
10660;DHT22;5378;53.206;13.316;2022-11-23T10:32:36;5.30;99.90
10660;DHT22;5378;53.206;13.316;2022-11-23T10:35:27;5.30;99.90
10660;DHT22;5378;53.206;13.316;2022-11-23T10:38:18;5.30;99.90
10660;DHT22;5378;53.206;13.316;2022-11-23T10:41:08;5.30;99.90
10660;DHT22;5378;53.206;13.316;2022-11-23T10:44:10;5.30;99.90
10660;DHT22;5378;53.206;13.316;2022-11-23T10:46:59;5.30;99.90
10660;DHT22;5378;53.206;13.316;2022-11-23T10:49:57;5.40;99.90
10660;DHT22;5378;53.206;13.316;2022-11-23T10:52:49;5.40;99.90
10660;DHT22;5378;53.206;13.316;2022-11-23T10:55:47;5.50;99.90
10660;DHT22;5378;53.206;13.316;2022-11-23T10:58:41;5.50;99.90
10660;DHT22;5378;53.206;13.316;2022-11-23T11:01:29;5.50;99.90
10660;DHT22;5378;53.206;13.316;2022-11-23T11:04:21;5.30;99.90
10660;DHT22;5378;53.206;13.316;2022-11-23T11:07:20;5.20;99.90
10660;DHT22;5378;53.206;13.316;2022-11-23T11:10:32;5.10;99.90
10660;DHT22;5378;53.206;13.316;2022-11-23T11:13:22;5.20;99.90
10660;DHT22;5378;53.206;13.316;2022-11-23T11:16:19;5.30;99.90
10660;DHT22;5378;53.206;13.316;2022-11-23T11:19:21;5.30;99.90
10660;DHT22;5378;53.206;13.316;2022-11-23T11:22:26;5.40;99.90
10660;DHT22;5378;53.206;13.316;2022-11-23T11:25:27;5.40;99.90
10660;DHT22;5378;53.206;13.316;2022-11-23T11:28:21;5.70;99.90
10660;DHT22;5378;53.206;13.316;2022-11-23T11:31:29;5.70;99.90
10660;DHT22;5378;53.206;13.316;2022-11-23T11:34:23;5.60;99.90
10660;DHT22;5378;53.206;13.316;2022-11-23T11:37:21;5.70;99.90
10660;DHT22;5378;53.206;13.316;2022-11-23T11:40:18;5.80;99.90
10660;DHT22;5378;53.206;13.316;2022-11-23T11:43:11;5.80;99.90
10660;DHT22;5378;53.206;13.316;2022-11-23T11:46:07;5.70;99.90
10660;DHT22;5378;53.206;13.316;2022-11-23T11:49:16;5.60;99.90
10660;DHT22;5378;53.206;13.316;2022-11-23T11:52:07;5.50;99.90
10660;DHT22;5378;53.206;13.316;2022-11-23T11:55:01;5.60;99.90
10660;DHT22;5378;53.206;13.316;2022-11-23T11:57:54;5.70;99.90
10660;DHT22;5378;53.206;13.316;2022-11-23T12:00:42;5.80;99.90
10660;DHT22;5378;53.206;13.316;2022-11-23T12:03:38;5.90;99.90
10660;DHT22;5378;53.206;13.316;2022-11-23T12:06:31;6.10;99.90
10660;DHT22;5378;53.206;13.316;2022-11-23T12:09:21;6.00;99.90
10660;DHT22;5378;53.206;13.316;2022-11-23T12:12:13;6.10;99.90
10660;DHT22;5378;53.206;13.316;2022-11-23T12:15:03;6.00;99.90
10660;DHT22;5378;53.206;13.316;2022-11-23T12:21:47;5.90;99.90
10660;DHT22;5378;53.206;13.316;2022-11-23T12:24:55;5.80;99.90
10660;DHT22;5378;53.206;13.316;2022-11-23T12:27:51;6.00;99.90
10660;DHT22;5378;53.206;13.316;2022-11-23T12:30:50;6.10;99.90
10660;DHT22;5378;53.206;13.316;2022-11-23T12:34:02;6.10;99.90
10660;DHT22;5378;53.206;13.316;2022-11-23T12:37:03;6.00;99.90
10660;DHT22;5378;53.206;13.316;2022-11-23T12:40:05;6.20;99.90
10660;DHT22;5378;53.206;13.316;2022-11-23T12:43:00;6.10;99.90
10660;DHT22;5378;53.206;13.316;2022-11-23T12:46:06;6.00;99.90
10660;DHT22;5378;53.206;13.316;2022-11-23T12:49:09;6.00;99.90
10660;DHT22;5378;53.206;13.316;2022-11-23T12:52:21;6.10;99.90
10660;DHT22;5378;53.206;13.316;2022-11-23T12:55:18;6.10;99.90
10660;DHT22;5378;53.206;13.316;2022-11-23T12:58:14;6.20;99.90
10660;DHT22;5378;53.206;13.316;2022-11-23T13:01:04;6.10;99.90
10660;DHT22;5378;53.206;13.316;2022-11-23T13:04:37;6.00;99.90
10660;DHT22;5378;53.206;13.316;2022-11-23T13:07:47;6.10;99.90
10660;DHT22;5378;53.206;13.316;2022-11-23T13:10:50;5.90;99.90
10660;DHT22;5378;53.206;13.316;2022-11-23T13:13:47;5.80;99.90
10660;DHT22;5378;53.206;13.316;2022-11-23T13:16:50;5.80;99.90
10660;DHT22;5378;53.206;13.316;2022-11-23T13:20:15;5.90;99.90
10660;DHT22;5378;53.206;13.316;2022-11-23T13:23:09;5.90;99.90
10660;DHT22;5378;53.206;13.316;2022-11-23T13:26:12;5.90;99.90
10660;DHT22;5378;53.206;13.316;2022-11-23T13:32:56;6.00;99.90
10660;DHT22;5378;53.206;13.316;2022-11-23T13:35:52;6.00;99.90
10660;DHT22;5378;53.206;13.316;2022-11-23T13:38:41;6.10;99.90
10660;DHT22;5378;53.206;13.316;2022-11-23T13:41:57;6.10;99.90
10660;DHT22;5378;53.206;13.316;2022-11-23T13:44:45;6.00;99.90
10660;DHT22;5378;53.206;13.316;2022-11-23T13:47:32;6.00;99.90
10660;DHT22;5378;53.206;13.316;2022-11-23T13:50:22;6.00;99.90
10660;DHT22;5378;53.206;13.316;2022-11-23T13:53:20;5.90;99.90
10660;DHT22;5378;53.206;13.316;2022-11-23T13:56:20;5.80;99.90
10660;DHT22;5378;53.206;13.316;2022-11-23T13:59:27;5.70;99.90
10660;DHT22;5378;53.206;13.316;2022-11-23T14:02:32;5.50;99.90
10660;DHT22;5378;53.206;13.316;2022-11-23T14:05:35;5.60;99.90
10660;DHT22;5378;53.206;13.316;2022-11-23T14:08:39;5.40;99.90
10660;DHT22;5378;53.206;13.316;2022-11-23T14:11:27;5.60;99.90
10660;DHT22;5378;53.206;13.316;2022-11-23T14:14:19;5.60;99.90
10660;DHT22;5378;53.206;13.316;2022-11-23T14:17:35;5.60;99.90
10660;DHT22;5378;53.206;13.316;2022-11-23T14:20:42;5.60;99.90
10660;DHT22;5378;53.206;13.316;2022-11-23T14:26:55;5.50;99.90
10660;DHT22;5378;53.206;13.316;2022-11-23T14:30:05;5.50;99.90
10660;DHT22;5378;53.206;13.316;2022-11-23T14:33:12;5.50;99.90
10660;DHT22;5378;53.206;13.316;2022-11-23T14:36:12;5.60;99.90
10660;DHT22;5378;53.206;13.316;2022-11-23T14:39:31;5.60;99.90
10660;DHT22;5378;53.206;13.316;2022-11-23T14:42:24;5.50;99.90
10660;DHT22;5378;53.206;13.316;2022-11-23T14:45:14;5.50;99.90
10660;DHT22;5378;53.206;13.316;2022-11-23T14:48:19;5.50;99.90
10660;DHT22;5378;53.206;13.316;2022-11-23T14:51:11;5.50;99.90
10660;DHT22;5378;53.206;13.316;2022-11-23T14:54:01;5.50;99.90
10660;DHT22;5378;53.206;13.316;2022-11-23T14:56:50;5.40;99.90
10660;DHT22;5378;53.206;13.316;2022-11-23T14:59:38;5.30;99.90
10660;DHT22;5378;53.206;13.316;2022-11-23T15:02:32;5.20;99.90
10660;DHT22;5378;53.206;13.316;2022-11-23T15:05:23;5.20;99.90
10660;DHT22;5378;53.206;13.316;2022-11-23T15:08:15;5.20;99.90
10660;DHT22;5378;53.206;13.316;2022-11-23T15:11:06;5.20;99.90
10660;DHT22;5378;53.206;13.316;2022-11-23T15:13:55;5.10;99.90
10660;DHT22;5378;53.206;13.316;2022-11-23T15:16:47;5.00;99.90
10660;DHT22;5378;53.206;13.316;2022-11-23T15:19:34;4.80;99.90
10660;DHT22;5378;53.206;13.316;2022-11-23T15:22:21;4.80;99.90
10660;DHT22;5378;53.206;13.316;2022-11-23T15:25:14;4.90;99.90
10660;DHT22;5378;53.206;13.316;2022-11-23T15:28:03;4.80;99.90
10660;DHT22;5378;53.206;13.316;2022-11-23T15:30:58;4.70;99.90
10660;DHT22;5378;53.206;13.316;2022-11-23T15:33:47;4.60;99.90
10660;DHT22;5378;53.206;13.316;2022-11-23T15:36:37;4.60;99.90
10660;DHT22;5378;53.206;13.316;2022-11-23T15:39:24;4.50;99.90
10660;DHT22;5378;53.206;13.316;2022-11-23T15:42:16;4.60;99.90
10660;DHT22;5378;53.206;13.316;2022-11-23T15:45:04;4.70;99.90
10660;DHT22;5378;53.206;13.316;2022-11-23T15:47:51;4.80;99.90
10660;DHT22;5378;53.206;13.316;2022-11-23T15:50:51;4.80;99.90
10660;DHT22;5378;53.206;13.316;2022-11-23T15:53:45;4.60;99.90
10660;DHT22;5378;53.206;13.316;2022-11-23T15:56:34;4.70;99.90
10660;DHT22;5378;53.206;13.316;2022-11-23T15:59:34;4.60;99.90
10660;DHT22;5378;53.206;13.316;2022-11-23T16:02:24;4.50;99.90
10660;DHT22;5378;53.206;13.316;2022-11-23T16:05:13;4.20;99.90
10660;DHT22;5378;53.206;13.316;2022-11-23T16:08:01;4.50;99.90
10660;DHT22;5378;53.206;13.316;2022-11-23T16:10:53;4.60;99.90
10660;DHT22;5378;53.206;13.316;2022-11-23T16:13:39;4.60;99.90
10660;DHT22;5378;53.206;13.316;2022-11-23T16:16:28;4.50;99.90
10660;DHT22;5378;53.206;13.316;2022-11-23T16:19:21;4.40;99.90
10660;DHT22;5378;53.206;13.316;2022-11-23T16:22:21;4.30;99.90
10660;DHT22;5378;53.206;13.316;2022-11-23T16:25:26;4.30;99.90
10660;DHT22;5378;53.206;13.316;2022-11-23T16:28:16;4.10;99.90
10660;DHT22;5378;53.206;13.316;2022-11-23T16:34:11;4.40;99.90
10660;DHT22;5378;53.206;13.316;2022-11-23T16:37:01;4.20;99.90
10660;DHT22;5378;53.206;13.316;2022-11-23T16:39:49;4.20;99.90
10660;DHT22;5378;53.206;13.316;2022-11-23T16:42:36;4.40;99.90
10660;DHT22;5378;53.206;13.316;2022-11-23T16:45:23;4.30;99.90
10660;DHT22;5378;53.206;13.316;2022-11-23T16:48:39;4.20;99.90
10660;DHT22;5378;53.206;13.316;2022-11-23T16:51:28;4.20;99.90
10660;DHT22;5378;53.206;13.316;2022-11-23T16:54:15;4.30;99.90
10660;DHT22;5378;53.206;13.316;2022-11-23T16:57:07;4.50;99.90
10660;DHT22;5378;53.206;13.316;2022-11-23T17:00:02;4.50;99.90
10660;DHT22;5378;53.206;13.316;2022-11-23T17:02:50;4.50;99.90
10660;DHT22;5378;53.206;13.316;2022-11-23T17:05:37;4.30;99.90
10660;DHT22;5378;53.206;13.316;2022-11-23T17:08:26;4.40;99.90
10660;DHT22;5378;53.206;13.316;2022-11-23T17:11:13;4.30;99.90
10660;DHT22;5378;53.206;13.316;2022-11-23T17:14:01;4.20;99.90
10660;DHT22;5378;53.206;13.316;2022-11-23T17:16:49;4.10;99.90
10660;DHT22;5378;53.206;13.316;2022-11-23T17:19:38;4.10;99.90
10660;DHT22;5378;53.206;13.316;2022-11-23T17:22:25;4.10;99.90
10660;DHT22;5378;53.206;13.316;2022-11-23T17:25:13;4.00;99.90
10660;DHT22;5378;53.206;13.316;2022-11-23T17:28:01;4.10;99.90
10660;DHT22;5378;53.206;13.316;2022-11-23T17:30:49;4.10;99.90
10660;DHT22;5378;53.206;13.316;2022-11-23T17:33:36;4.10;99.90
10660;DHT22;5378;53.206;13.316;2022-11-23T17:36:24;4.10;99.90
10660;DHT22;5378;53.206;13.316;2022-11-23T17:39:14;4.10;99.90
10660;DHT22;5378;53.206;13.316;2022-11-23T17:42:05;4.10;99.90
10660;DHT22;5378;53.206;13.316;2022-11-23T17:44:52;4.20;99.90
10660;DHT22;5378;53.206;13.316;2022-11-23T17:47:41;4.30;99.90
10660;DHT22;5378;53.206;13.316;2022-11-23T17:50:29;4.30;99.90
10660;DHT22;5378;53.206;13.316;2022-11-23T17:53:16;4.40;99.90
10660;DHT22;5378;53.206;13.316;2022-11-23T17:56:13;4.40;99.90
10660;DHT22;5378;53.206;13.316;2022-11-23T17:59:03;4.30;99.90
10660;DHT22;5378;53.206;13.316;2022-11-23T18:01:51;4.30;99.90
10660;DHT22;5378;53.206;13.316;2022-11-23T18:04:38;4.30;99.90
10660;DHT22;5378;53.206;13.316;2022-11-23T18:07:25;4.20;99.90
10660;DHT22;5378;53.206;13.316;2022-11-23T18:10:13;4.20;99.90
10660;DHT22;5378;53.206;13.316;2022-11-23T18:13:00;4.30;99.90
10660;DHT22;5378;53.206;13.316;2022-11-23T18:15:49;4.20;99.90
10660;DHT22;5378;53.206;13.316;2022-11-23T18:18:36;4.20;99.90
10660;DHT22;5378;53.206;13.316;2022-11-23T18:21:23;4.20;99.90
10660;DHT22;5378;53.206;13.316;2022-11-23T18:24:10;4.20;99.90
10660;DHT22;5378;53.206;13.316;2022-11-23T18:26:57;4.30;99.90
10660;DHT22;5378;53.206;13.316;2022-11-23T18:29:45;4.20;99.90
10660;DHT22;5378;53.206;13.316;2022-11-23T18:32:33;4.00;99.90
10660;DHT22;5378;53.206;13.316;2022-11-23T18:35:21;4.20;99.90
10660;DHT22;5378;53.206;13.316;2022-11-23T18:38:08;4.40;99.90